createdAt,value
2022-09-30T00:00:27.660Z,100354.88
2022-09-30T00:01:29.388Z,100348.75
2022-09-30T00:02:32.372Z,100352.25
2022-09-30T00:03:34.015Z,100345.13
2022-09-30T00:04:36.557Z,100347.75
2022-09-30T00:05:38.128Z,100348.75
2022-09-30T00:06:40.731Z,100353.19
2022-09-30T00:07:42.315Z,100348.84
2022-09-30T00:08:44.808Z,100349.84
2022-09-30T00:09:47.949Z,100349.00
2022-09-30T00:10:59.750Z,100350.78
2022-09-30T00:12:01.853Z,100357.03
2022-09-30T00:13:05.700Z,100363.16
2022-09-30T00:14:09.574Z,100363.16
2022-09-30T00:15:11.215Z,100363.16
2022-09-30T00:16:15.258Z,100364.88
2022-09-30T00:17:16.943Z,100370.19
2022-09-30T00:18:19.475Z,100371.03
2022-09-30T00:19:21.116Z,100377.97
2022-09-30T00:20:23.762Z,100370.88
2022-09-30T00:21:26.655Z,100381.47
2022-09-30T00:22:29.236Z,100385.09
2022-09-30T00:23:30.772Z,100377.13
2022-09-30T00:24:33.269Z,100384.13
2022-09-30T00:25:34.829Z,100380.53
2022-09-30T00:26:37.739Z,100380.53
2022-09-30T00:27:39.724Z,100381.47
2022-09-30T00:28:44.731Z,100372.69
2022-09-30T00:29:46.600Z,100377.13
2022-09-30T00:30:49.134Z,100375.47
2022-09-30T00:31:50.897Z,100373.75
2022-09-30T00:32:53.464Z,100371.22
2022-09-30T00:34:07.545Z,100377.34
2022-09-30T00:35:10.401Z,100382.81
2022-09-30T00:36:12.020Z,100376.66
2022-09-30T00:37:16.667Z,100377.63
2022-09-30T00:38:18.229Z,100376.78
2022-09-30T00:39:23.816Z,100375.94
2022-09-30T00:40:26.148Z,100384.72
2022-09-30T00:41:28.754Z,100375.94
2022-09-30T00:42:30.689Z,100374.25
2022-09-30T00:43:51.289Z,100375.09
2022-09-30T00:44:54.984Z,100379.56
2022-09-30T00:46:00.512Z,100371.72
2022-09-30T00:47:02.425Z,100375.34
2022-09-30T00:48:09.563Z,100369.22
2022-09-30T00:49:15.857Z,100372.81
2022-09-30T00:50:30.600Z,100379.81
2022-09-30T00:51:36.758Z,100379.81
2022-09-30T00:52:39.724Z,100378.97
2022-09-30T00:53:51.991Z,100375.47
2022-09-30T00:54:55.250Z,100378.13
2022-09-30T00:56:01.024Z,100380.06
2022-09-30T00:57:04.424Z,100377.41
2022-09-30T00:58:10.551Z,100380.16
2022-09-30T00:59:18.253Z,100380.31
2022-09-30T01:00:20.888Z,100383.91
2022-09-30T01:01:24.087Z,100379.47
2022-09-30T01:02:26.659Z,100384.75
2022-09-30T01:03:31.035Z,100382.13
2022-09-30T01:04:35.892Z,100384.88
2022-09-30T01:05:37.642Z,100379.56
2022-09-30T01:06:42.251Z,100387.50
2022-09-30T01:07:47.047Z,100377.06
2022-09-30T01:08:50.260Z,100392.81
2022-09-30T01:09:52.380Z,100389.31
2022-09-30T01:10:54.917Z,100390.16
2022-09-30T01:11:56.761Z,100395.47
2022-09-30T01:13:00.420Z,100392.81
2022-09-30T01:14:17.571Z,100392.81
2022-09-30T01:15:30.243Z,100391.16
2022-09-30T01:16:55.615Z,100403.53
2022-09-30T01:18:06.256Z,100400.75
2022-09-30T01:19:27.460Z,100393.78
2022-09-30T01:21:08.067Z,100400.88
2022-09-30T01:22:20.924Z,100400.03
2022-09-30T01:23:52.546Z,100399.19
2022-09-30T01:25:31.227Z,100405.34
2022-09-30T01:26:53.336Z,100401.94
2022-09-30T01:28:29.225Z,100405.44
2022-09-30T01:29:57.973Z,100408.22
2022-09-30T01:31:22.166Z,100409.34
2022-09-30T01:32:33.822Z,100409.44
2022-09-30T01:33:46.052Z,100405.00
2022-09-30T01:34:55.708Z,100405.09
2022-09-30T01:36:25.219Z,100400.78
2022-09-30T01:37:38.110Z,100395.59
2022-09-30T01:38:48.549Z,100400.31
2022-09-30T01:40:04.227Z,100396.81
2022-09-30T01:41:10.685Z,100404.88
2022-09-30T01:42:19.688Z,100397.19
2022-09-30T01:43:29.693Z,100402.50
2022-09-30T01:44:38.913Z,100398.16
2022-09-30T01:45:44.846Z,100402.59
2022-09-30T01:46:56.469Z,100400.09
2022-09-30T01:48:02.211Z,100400.09
2022-09-30T01:49:12.377Z,100403.69
2022-09-30T01:50:20.144Z,100402.00
2022-09-30T01:51:33.793Z,100402.00
2022-09-30T01:52:41.298Z,100394.19
2022-09-30T01:53:48.162Z,100399.59
2022-09-30T01:54:55.133Z,100403.09
2022-09-30T01:56:03.744Z,100398.75
2022-09-30T01:57:11.532Z,100398.03
2022-09-30T01:58:20.112Z,100402.47
2022-09-30T01:59:26.871Z,100404.28
2022-09-30T02:00:29.582Z,100402.63
2022-09-30T02:01:39.157Z,100404.28
2022-09-30T02:02:49.983Z,100407.91
2022-09-30T02:03:55.711Z,100403.56
2022-09-30T02:05:02.783Z,100408.88
2022-09-30T02:06:08.561Z,100406.34
2022-09-30T02:07:16.828Z,100406.34
2022-09-30T02:08:24.050Z,100409.97
2022-09-30T02:09:30.435Z,100409.13
2022-09-30T02:10:35.516Z,100401.28
2022-09-30T02:11:39.553Z,100410.91
2022-09-30T02:12:47.998Z,100405.63
2022-09-30T02:13:54.794Z,100403.94
2022-09-30T02:15:02.163Z,100402.13
2022-09-30T02:16:12.925Z,100397.69
2022-09-30T02:17:21.118Z,100397.69
2022-09-30T02:18:29.623Z,100399.47
2022-09-30T02:19:36.959Z,100405.63
2022-09-30T02:20:44.079Z,100400.34
2022-09-30T02:21:51.598Z,100402.13
2022-09-30T02:23:01.636Z,100395.03
2022-09-30T02:24:09.798Z,100395.16
2022-09-30T02:25:20.106Z,100393.34
2022-09-30T02:26:27.094Z,100390.69
2022-09-30T02:27:41.495Z,100386.41
2022-09-30T02:28:49.045Z,100396.97
2022-09-30T02:29:56.446Z,100392.63
2022-09-30T02:31:02.400Z,100402.25
2022-09-30T02:32:07.652Z,100397.94
2022-09-30T02:33:14.539Z,100407.66
2022-09-30T02:34:20.965Z,100407.56
2022-09-30T02:35:28.888Z,100404.06
2022-09-30T02:36:34.894Z,100407.66
2022-09-30T02:37:42.610Z,100408.50
2022-09-30T02:38:48.925Z,100401.53
2022-09-30T02:39:55.950Z,100405.03
2022-09-30T02:41:02.279Z,100410.41
2022-09-30T02:42:12.713Z,100410.41
2022-09-30T02:43:17.708Z,100408.63
2022-09-30T02:44:20.342Z,100410.56
2022-09-30T02:45:25.004Z,100412.34
2022-09-30T02:46:35.075Z,100410.66
2022-09-30T02:47:49.141Z,100412.34
2022-09-30T02:49:01.584Z,100413.31
2022-09-30T02:50:13.249Z,100416.94
2022-09-30T02:51:21.066Z,100414.28
2022-09-30T02:52:27.774Z,100413.44
2022-09-30T02:53:36.483Z,100415.38
2022-09-30T02:54:52.410Z,100414.53
2022-09-30T02:56:09.530Z,100415.47
2022-09-30T02:57:20.429Z,100421.63
2022-09-30T02:58:26.181Z,100417.28
2022-09-30T02:59:29.034Z,100417.28
2022-09-30T03:00:30.800Z,100413.78
2022-09-30T03:01:33.500Z,100421.72
2022-09-30T03:02:35.503Z,100424.38
2022-09-30T03:03:41.564Z,100420.06
2022-09-30T03:04:45.773Z,100429.66
2022-09-30T03:05:51.638Z,100422.72
2022-09-30T03:06:54.232Z,100428.72
2022-09-30T03:07:57.465Z,100431.34
2022-09-30T03:08:59.048Z,100427.00
2022-09-30T03:10:01.550Z,100425.34
2022-09-30T03:11:05.113Z,100419.22
2022-09-30T03:12:16.736Z,100423.66
2022-09-30T03:13:35.222Z,100421.97
2022-09-30T03:14:51.552Z,100420.31
2022-09-30T03:16:09.733Z,100423.91
2022-09-30T03:17:30.572Z,100425.69
2022-09-30T03:18:54.046Z,100434.72
2022-09-30T03:20:14.516Z,100431.09
2022-09-30T03:21:33.432Z,100429.44
2022-09-30T03:22:51.227Z,100434.81
2022-09-30T03:24:13.473Z,100430.50
2022-09-30T03:25:29.348Z,100435.91
2022-09-30T03:26:41.087Z,100438.66
2022-09-30T03:27:55.388Z,100435.19
2022-09-30T03:29:07.147Z,100441.44
2022-09-30T03:30:16.015Z,100445.78
2022-09-30T03:31:25.787Z,100441.44
2022-09-30T03:32:42.503Z,100440.72
2022-09-30T03:33:50.338Z,100446.00
2022-09-30T03:35:03.275Z,100448.66
2022-09-30T03:36:09.246Z,100444.31
2022-09-30T03:37:20.826Z,100430.25
2022-09-30T03:38:34.768Z,100445.28
2022-09-30T03:39:54.963Z,100443.47
2022-09-30T03:41:04.012Z,100444.31
2022-09-30T03:42:12.130Z,100440.72
2022-09-30T03:43:21.285Z,100439.03
2022-09-30T03:44:30.782Z,100440.81
2022-09-30T03:45:46.539Z,100438.19
2022-09-30T03:46:52.544Z,100443.47
2022-09-30T03:47:58.614Z,100448.75
2022-09-30T03:49:04.994Z,100449.72
2022-09-30T03:50:09.720Z,100447.81
2022-09-30T03:51:12.974Z,100450.47
2022-09-30T03:52:16.978Z,100456.59
2022-09-30T03:53:19.784Z,100457.41
2022-09-30T03:54:22.805Z,100458.25
2022-09-30T03:55:26.307Z,100459.09
2022-09-30T03:56:29.501Z,100451.31
2022-09-30T03:57:32.435Z,100456.59
2022-09-30T03:58:34.735Z,100455.75
2022-09-30T03:59:37.231Z,100452.25
2022-09-30T04:00:42.690Z,100457.53
2022-09-30T04:01:45.267Z,100454.16
2022-09-30T04:02:46.934Z,100449.72
2022-09-30T04:03:52.180Z,100451.50
2022-09-30T04:04:53.705Z,100451.50
2022-09-30T04:05:56.209Z,100451.63
2022-09-30T04:06:57.741Z,100451.63
2022-09-30T04:08:01.933Z,100452.59
2022-09-30T04:09:03.714Z,100453.56
2022-09-30T04:10:06.949Z,100452.84
2022-09-30T04:11:08.538Z,100452.84
2022-09-30T04:12:11.603Z,100462.56
2022-09-30T04:13:13.160Z,100457.41
2022-09-30T04:14:15.743Z,100460.03
2022-09-30T04:15:17.282Z,100462.78
2022-09-30T04:16:19.959Z,100462.78
2022-09-30T04:17:22.360Z,100473.25
2022-09-30T04:18:24.885Z,100471.47
2022-09-30T04:19:26.495Z,100472.28
2022-09-30T04:20:30.709Z,100467.97
2022-09-30T04:21:32.390Z,100473.38
2022-09-30T04:22:34.970Z,100473.38
2022-09-30T04:23:38.610Z,100473.50
2022-09-30T04:24:41.114Z,100479.75
2022-09-30T04:25:42.652Z,100474.44
2022-09-30T04:26:45.113Z,100485.03
2022-09-30T04:27:46.616Z,100494.75
2022-09-30T04:28:49.073Z,100484.19
2022-09-30T04:29:50.623Z,100487.78
2022-09-30T04:30:53.265Z,100493.06
2022-09-30T04:31:54.926Z,100487.91
2022-09-30T04:32:57.752Z,100486.09
2022-09-30T04:33:59.240Z,100488.84
2022-09-30T04:35:01.715Z,100490.66
2022-09-30T04:36:04.568Z,100494.28
2022-09-30T04:37:10.739Z,100481.06
2022-09-30T04:38:12.547Z,100495.22
2022-09-30T04:39:16.375Z,100488.22
2022-09-30T04:40:17.936Z,100490.88
2022-09-30T04:41:20.943Z,100487.28
2022-09-30T04:42:22.468Z,100489.09
2022-09-30T04:43:26.191Z,100485.59
2022-09-30T04:44:28.677Z,100486.56
2022-09-30T04:45:30.277Z,100487.28
2022-09-30T04:46:33.653Z,100489.94
2022-09-30T04:47:35.331Z,100489.84
2022-09-30T04:48:37.805Z,100488.97
2022-09-30T04:49:39.337Z,100491.63
2022-09-30T04:50:42.171Z,100492.47
2022-09-30T04:51:45.989Z,100493.28
2022-09-30T04:52:48.543Z,100499.56
2022-09-30T04:53:50.329Z,100496.06
2022-09-30T04:54:55.001Z,100488.22
2022-09-30T04:56:00.168Z,100500.50
2022-09-30T04:57:02.679Z,100491.84
2022-09-30T04:58:04.364Z,100498.81
2022-09-30T04:59:07.215Z,100498.81
2022-09-30T05:00:11.464Z,100496.16
2022-09-30T05:01:17.553Z,100497.97
2022-09-30T05:02:20.145Z,100502.44
2022-09-30T05:03:21.736Z,100504.22
2022-09-30T05:04:24.279Z,100500.75
2022-09-30T05:05:25.923Z,100509.50
2022-09-30T05:06:28.488Z,100506.03
2022-09-30T05:07:31.122Z,100508.66
2022-09-30T05:08:34.696Z,100514.91
2022-09-30T05:09:36.456Z,100517.53
2022-09-30T05:10:40.312Z,100510.47
2022-09-30T05:11:42.555Z,100510.47
2022-09-30T05:12:45.110Z,100503.47
2022-09-30T05:13:47.332Z,100514.91
2022-09-30T05:14:49.787Z,100510.59
2022-09-30T05:15:51.897Z,100513.22
2022-09-30T05:16:54.460Z,100511.53
2022-09-30T05:17:56.001Z,100515.97
2022-09-30T05:18:58.495Z,100519.47
2022-09-30T05:20:00.534Z,100521.25
2022-09-30T05:21:04.014Z,100526.44
2022-09-30T05:22:06.580Z,100530.03
2022-09-30T05:23:08.174Z,100524.75
2022-09-30T05:24:10.904Z,100527.41
2022-09-30T05:25:12.425Z,100525.69
2022-09-30T05:26:16.693Z,100526.56
2022-09-30T05:27:18.499Z,100526.56
2022-09-30T05:28:21.096Z,100525.69
2022-09-30T05:29:22.717Z,100528.34
2022-09-30T05:30:25.263Z,100531.94
2022-09-30T05:31:27.004Z,100527.50
2022-09-30T05:32:31.939Z,100533.75
2022-09-30T05:33:35.631Z,100539.88
2022-09-30T05:34:38.908Z,100541.56
2022-09-30T05:35:41.766Z,100549.50
2022-09-30T05:36:44.691Z,100544.19
2022-09-30T05:37:46.261Z,100553.81
2022-09-30T05:38:51.794Z,100552.88
2022-09-30T05:39:54.932Z,100551.06
2022-09-30T05:40:57.745Z,100562.47
2022-09-30T05:42:00.972Z,100562.47
2022-09-30T05:43:03.489Z,100565.97
2022-09-30T05:44:05.304Z,100566.81
2022-09-30T05:45:08.928Z,100565.13
2022-09-30T05:46:10.988Z,100566.81
2022-09-30T05:47:13.507Z,100564.16
2022-09-30T05:48:15.046Z,100571.97
2022-09-30T05:49:17.584Z,100573.66
2022-09-30T05:50:19.656Z,100570.16
2022-09-30T05:51:22.512Z,100574.50
2022-09-30T05:52:24.440Z,100571.03
2022-09-30T05:53:27.142Z,100569.22
2022-09-30T05:54:29.030Z,100571.88
2022-09-30T05:55:35.750Z,100567.31
2022-09-30T05:56:41.202Z,100571.78
2022-09-30T05:57:47.907Z,100572.59
2022-09-30T05:58:50.924Z,100580.41
2022-09-30T05:59:52.576Z,100574.19
2022-09-30T06:00:55.169Z,100576.69
2022-09-30T06:01:56.777Z,100575.75
2022-09-30T06:02:59.359Z,100577.44
2022-09-30T06:04:01.371Z,100580.81
2022-09-30T06:05:04.063Z,100580.81
2022-09-30T06:06:06.927Z,100582.50
2022-09-30T06:07:10.659Z,100579.72
2022-09-30T06:08:13.155Z,100585.75
2022-09-30T06:09:15.830Z,100583.94
2022-09-30T06:10:17.642Z,100582.75
2022-09-30T06:11:23.378Z,100583.50
2022-09-30T06:12:27.306Z,100589.38
2022-09-30T06:13:31.596Z,100587.47
2022-09-30T06:14:33.117Z,100586.41
2022-09-30T06:15:36.840Z,100593.25
2022-09-30T06:16:38.458Z,100590.38
2022-09-30T06:17:42.423Z,100585.84
2022-09-30T06:18:45.721Z,100590.03
2022-09-30T06:19:47.291Z,100583.81
2022-09-30T06:20:50.010Z,100582.72
2022-09-30T06:21:51.806Z,100587.78
2022-09-30T06:22:54.528Z,100581.53
2022-09-30T06:23:58.696Z,100594.53
2022-09-30T06:25:00.252Z,100591.75
2022-09-30T06:26:04.625Z,100597.03
2022-09-30T06:27:09.164Z,100599.59
2022-09-30T06:28:10.787Z,100603.09
2022-09-30T06:29:14.747Z,100597.66
2022-09-30T06:30:16.836Z,100599.44
2022-09-30T06:31:19.690Z,100594.91
2022-09-30T06:32:21.323Z,100595.75
2022-09-30T06:33:23.813Z,100601.88
2022-09-30T06:34:26.396Z,100598.28
2022-09-30T06:35:28.776Z,100610.53
2022-09-30T06:36:33.297Z,100616.56
2022-09-30T06:37:37.171Z,100619.19
2022-09-30T06:38:40.454Z,100622.69
2022-09-30T06:39:45.531Z,100625.34
2022-09-30T06:40:54.280Z,100624.38
2022-09-30T06:41:59.157Z,100627.88
2022-09-30T06:43:07.058Z,100629.56
2022-09-30T06:44:09.611Z,100628.59
2022-09-30T06:45:21.574Z,100632.09
2022-09-30T06:46:31.058Z,100624.16
2022-09-30T06:47:33.193Z,100629.31
2022-09-30T06:48:38.747Z,100631.00
2022-09-30T06:49:49.196Z,100636.31
2022-09-30T06:51:01.161Z,100639.66
2022-09-30T06:52:04.041Z,100642.22
2022-09-30T06:53:09.010Z,100647.50
2022-09-30T06:54:10.871Z,100645.69
2022-09-30T06:55:13.311Z,100650.00
2022-09-30T06:56:18.195Z,100646.41
2022-09-30T06:57:22.452Z,100648.13
2022-09-30T06:58:25.800Z,100648.81
2022-09-30T06:59:27.787Z,100645.22
2022-09-30T07:00:31.737Z,100646.94
2022-09-30T07:01:33.375Z,100651.13
2022-09-30T07:02:36.435Z,100657.16
2022-09-30T07:03:38.009Z,100656.06
2022-09-30T07:04:40.502Z,100653.41
2022-09-30T07:05:42.018Z,100657.75
2022-09-30T07:06:44.919Z,100658.50
2022-09-30T07:07:46.796Z,100650.44
2022-09-30T07:08:49.298Z,100654.78
2022-09-30T07:09:53.655Z,100652.00
2022-09-30T07:10:57.999Z,100643.09
2022-09-30T07:12:00.513Z,100646.47
2022-09-30T07:13:02.638Z,100652.50
2022-09-30T07:14:05.270Z,100653.22
2022-09-30T07:15:12.795Z,100657.41
2022-09-30T07:16:21.077Z,100653.81
2022-09-30T07:17:23.149Z,100656.38
2022-09-30T07:18:28.651Z,100653.59
2022-09-30T07:19:31.489Z,100652.63
2022-09-30T07:20:33.045Z,100658.88
2022-09-30T07:21:35.564Z,100659.72
2022-09-30T07:22:37.068Z,100656.16
2022-09-30T07:23:47.779Z,100659.53
2022-09-30T07:24:49.563Z,100663.00
2022-09-30T07:25:53.710Z,100655.78
2022-09-30T07:26:55.263Z,100658.31
2022-09-30T07:27:57.747Z,100661.69
2022-09-30T07:29:00.084Z,100668.69
2022-09-30T07:30:15.112Z,100669.41
2022-09-30T07:31:35.562Z,100672.78
2022-09-30T07:32:39.579Z,100673.50
2022-09-30T07:33:41.131Z,100668.19
2022-09-30T07:34:44.001Z,100667.25
2022-09-30T07:35:52.478Z,100667.97
2022-09-30T07:36:55.299Z,100661.72
2022-09-30T07:37:56.816Z,100665.06
2022-09-30T07:39:00.208Z,100660.63
2022-09-30T07:40:04.438Z,100668.47
2022-09-30T07:41:09.475Z,100665.69
2022-09-30T07:42:11.562Z,100661.94
2022-09-30T07:43:17.029Z,100670.63
2022-09-30T07:44:20.139Z,100668.69
2022-09-30T07:45:21.825Z,100667.72
2022-09-30T07:46:29.668Z,100674.50
2022-09-30T07:47:31.200Z,100672.53
2022-09-30T07:48:44.533Z,100672.53
2022-09-30T07:49:46.638Z,100670.38
2022-09-30T07:50:49.156Z,100663.25
2022-09-30T07:51:52.383Z,100667.47
2022-09-30T07:52:56.189Z,100662.06
2022-09-30T07:54:00.356Z,100667.25
2022-09-30T07:55:02.856Z,100670.63
2022-09-30T07:56:05.550Z,100669.66
2022-09-30T07:57:11.843Z,100670.38
2022-09-30T07:58:13.709Z,100666.78
2022-09-30T07:59:16.620Z,100678.94
2022-09-30T08:00:40.666Z,100680.47
2022-09-30T08:01:43.114Z,100671.56
2022-09-30T08:02:45.648Z,100675.06
2022-09-30T08:03:54.420Z,100677.59
2022-09-30T08:04:57.140Z,100679.28
2022-09-30T08:06:04.433Z,100682.63
2022-09-30T08:07:07.149Z,100673.72
2022-09-30T08:08:08.999Z,100675.44
2022-09-30T08:09:12.275Z,100677.94
2022-09-30T08:10:15.600Z,100688.28
2022-09-30T08:11:17.481Z,100686.38
2022-09-30T08:12:19.991Z,100678.28
2022-09-30T08:13:21.588Z,100681.69
2022-09-30T08:14:26.096Z,100679.75
2022-09-30T08:15:27.732Z,100674.31
2022-09-30T08:16:30.393Z,100681.19
2022-09-30T08:17:34.277Z,100670.44
2022-09-30T08:18:35.957Z,100671.19
2022-09-30T08:19:41.271Z,100674.53
2022-09-30T08:20:42.835Z,100675.38
2022-09-30T08:21:46.219Z,100677.09
2022-09-30T08:22:47.788Z,100679.59
2022-09-30T08:23:50.841Z,100682.13
2022-09-30T08:24:53.304Z,100681.03
2022-09-30T08:26:00.988Z,100676.59
2022-09-30T08:27:03.690Z,100671.28
2022-09-30T08:28:05.271Z,100681.63
2022-09-30T08:29:08.010Z,100680.53
2022-09-30T08:30:12.654Z,100673.28
2022-09-30T08:31:17.043Z,100675.56
2022-09-30T08:32:19.548Z,100674.63
2022-09-30T08:33:22.518Z,100670.00
2022-09-30T08:34:25.307Z,100680.38
2022-09-30T08:35:27.021Z,100667.84
2022-09-30T08:36:30.475Z,100667.59
2022-09-30T08:37:32.016Z,100674.44
2022-09-30T08:38:35.318Z,100665.38
2022-09-30T08:39:38.040Z,100671.28
2022-09-30T08:40:58.633Z,100666.69
2022-09-30T08:42:32.805Z,100665.63
2022-09-30T08:43:51.176Z,100674.97
2022-09-30T08:44:52.787Z,100673.06
2022-09-30T08:46:05.469Z,100672.81
2022-09-30T08:47:22.963Z,100671.69
2022-09-30T08:48:49.920Z,100675.06
2022-09-30T08:50:03.313Z,100686.28
2022-09-30T08:51:20.665Z,100683.34
2022-09-30T08:52:37.381Z,100677.84
2022-09-30T08:53:49.023Z,100677.44
2022-09-30T08:54:53.354Z,100678.03
2022-09-30T08:55:57.918Z,100676.09
2022-09-30T08:57:01.900Z,100683.81
2022-09-30T08:58:05.881Z,100674.88
2022-09-30T08:59:21.303Z,100677.25
2022-09-30T09:00:24.208Z,100684.97
2022-09-30T09:01:31.520Z,100687.50
2022-09-30T09:02:37.110Z,100682.91
2022-09-30T09:03:40.547Z,100681.81
2022-09-30T09:04:43.482Z,100683.47
2022-09-30T09:06:01.570Z,100677.91
2022-09-30T09:07:11.510Z,100675.13
2022-09-30T09:08:19.153Z,100678.50
2022-09-30T09:09:44.302Z,100674.88
2022-09-30T09:10:54.495Z,100672.34
2022-09-30T09:12:11.374Z,100673.31
2022-09-30T09:13:26.528Z,100678.38
2022-09-30T09:14:40.207Z,100679.91
2022-09-30T09:15:59.510Z,100678.81
2022-09-30T09:17:14.603Z,100681.22
2022-09-30T09:18:34.719Z,100686.41
2022-09-30T09:19:47.410Z,100687.00
2022-09-30T09:20:55.413Z,100679.59
2022-09-30T09:22:02.738Z,100683.66
2022-09-30T09:23:10.357Z,100683.38
2022-09-30T09:24:16.956Z,100677.00
2022-09-30T09:25:23.032Z,100673.06
2022-09-30T09:26:27.723Z,100675.50
2022-09-30T09:27:42.802Z,100672.84
2022-09-30T09:28:56.406Z,100677.03
2022-09-30T09:30:12.709Z,100675.06
2022-09-30T09:31:17.271Z,100683.78
2022-09-30T09:32:20.128Z,100674.69
2022-09-30T09:33:26.129Z,100682.41
2022-09-30T09:34:31.665Z,100670.53
2022-09-30T09:35:47.090Z,100670.25
2022-09-30T09:37:03.804Z,100677.13
2022-09-30T09:38:29.828Z,100675.16
2022-09-30T09:39:52.282Z,100673.06
2022-09-30T09:41:08.429Z,100671.00
2022-09-30T09:42:30.716Z,100667.22
2022-09-30T09:43:49.013Z,100670.59
2022-09-30T09:44:57.363Z,100669.34
2022-09-30T09:46:05.265Z,100665.44
2022-09-30T09:47:15.010Z,100665.16
2022-09-30T09:48:17.336Z,100660.56
2022-09-30T09:49:35.064Z,100660.41
2022-09-30T09:50:46.660Z,100665.59
2022-09-30T09:51:58.519Z,100666.31
2022-09-30T09:53:22.243Z,100668.69
2022-09-30T09:54:31.098Z,100666.75
2022-09-30T09:55:37.703Z,100669.13
2022-09-30T09:56:40.223Z,100668.00
2022-09-30T09:57:41.787Z,100673.06
2022-09-30T09:59:08.917Z,100669.19
2022-09-30T10:00:31.816Z,100669.75
2022-09-30T10:01:36.339Z,100658.97
2022-09-30T10:02:39.717Z,100672.84
2022-09-30T10:03:42.663Z,100669.03
2022-09-30T10:04:50.911Z,100666.09
2022-09-30T10:06:04.090Z,100670.34
2022-09-30T10:07:15.087Z,100674.25
2022-09-30T10:08:18.986Z,100674.81
2022-09-30T10:09:27.272Z,100667.53
2022-09-30T10:10:30.174Z,100668.25
2022-09-30T10:11:31.740Z,100666.97
2022-09-30T10:12:34.297Z,100659.69
2022-09-30T10:13:42.889Z,100658.72
2022-09-30T10:14:52.556Z,100657.59
2022-09-30T10:15:57.936Z,100650.47
2022-09-30T10:17:00.787Z,100654.50
2022-09-30T10:18:03.309Z,100657.88
2022-09-30T10:19:19.917Z,100655.06
2022-09-30T10:20:29.137Z,100653.25
2022-09-30T10:21:33.037Z,100653.81
2022-09-30T10:22:36.438Z,100645.69
2022-09-30T10:23:40.624Z,100661.38
2022-09-30T10:24:42.321Z,100655.78
2022-09-30T10:25:57.045Z,100659.97
2022-09-30T10:26:59.566Z,100665.00
2022-09-30T10:28:04.089Z,100657.72
2022-09-30T10:29:27.285Z,100657.59
2022-09-30T10:30:45.635Z,100658.25
2022-09-30T10:31:50.562Z,100656.44
2022-09-30T10:32:52.346Z,100659.66
2022-09-30T10:34:01.212Z,100655.75
2022-09-30T10:35:06.141Z,100651.09
2022-09-30T10:36:12.981Z,100655.31
2022-09-30T10:37:20.663Z,100655.03
2022-09-30T10:38:26.396Z,100652.22
2022-09-30T10:39:31.002Z,100649.25
2022-09-30T10:40:40.029Z,100649.25
2022-09-30T10:41:43.139Z,100650.78
2022-09-30T10:42:48.352Z,100656.84
2022-09-30T10:43:53.718Z,100656.56
2022-09-30T10:44:57.413Z,100658.09
2022-09-30T10:46:24.579Z,100662.28
2022-09-30T10:47:31.356Z,100658.50
2022-09-30T10:48:38.991Z,100660.88
2022-09-30T10:49:49.053Z,100656.09
2022-09-30T10:50:52.611Z,100661.28
2022-09-30T10:51:56.199Z,100664.63
2022-09-30T10:53:02.224Z,100658.03
2022-09-30T10:54:07.119Z,100657.75
2022-09-30T10:55:29.413Z,100654.00
2022-09-30T10:56:39.249Z,100656.19
2022-09-30T10:57:41.757Z,100658.44
2022-09-30T10:58:48.671Z,100653.66
2022-09-30T10:59:55.726Z,100649.19
2022-09-30T11:01:02.239Z,100649.97
2022-09-30T11:02:18.963Z,100654.75
2022-09-30T11:03:25.397Z,100661.88
2022-09-30T11:04:34.804Z,100655.66
2022-09-30T11:05:40.052Z,100659.41
2022-09-30T11:06:46.893Z,100663.47
2022-09-30T11:07:55.810Z,100660.03
2022-09-30T11:09:04.723Z,100663.25
2022-09-30T11:10:15.377Z,100660.28
2022-09-30T11:11:22.573Z,100673.00
2022-09-30T11:12:33.572Z,100667.09
2022-09-30T11:13:38.139Z,100667.19
2022-09-30T11:14:45.252Z,100673.91
2022-09-30T11:15:58.677Z,100672.63
2022-09-30T11:17:08.638Z,100665.28
2022-09-30T11:18:19.750Z,100668.94
2022-09-30T11:19:26.868Z,100667.28
2022-09-30T11:20:32.403Z,100674.44
2022-09-30T11:21:37.563Z,100667.59
2022-09-30T11:22:47.083Z,100672.38
2022-09-30T11:23:55.985Z,100670.16
2022-09-30T11:24:59.155Z,100670.44
2022-09-30T11:26:08.005Z,100673.97
2022-09-30T11:27:16.312Z,100672.97
2022-09-30T11:28:36.910Z,100672.28
2022-09-30T11:29:50.294Z,100670.44
2022-09-30T11:31:06.775Z,100674.09
2022-09-30T11:32:17.288Z,100676.78
2022-09-30T11:33:36.071Z,100667.78
2022-09-30T11:34:55.176Z,100674.50
2022-09-30T11:36:06.813Z,100678.53
2022-09-30T11:37:18.789Z,100663.91
2022-09-30T11:38:48.455Z,100668.63
2022-09-30T11:40:05.745Z,100664.97
2022-09-30T11:41:12.230Z,100662.31
2022-09-30T11:42:22.901Z,100658.78
2022-09-30T11:43:34.993Z,100661.47
2022-09-30T11:44:41.510Z,100654.59
2022-09-30T11:46:01.162Z,100657.28
2022-09-30T11:47:17.590Z,100660.78
2022-09-30T11:48:35.358Z,100647.44
2022-09-30T11:50:11.084Z,100651.09
2022-09-30T11:51:20.585Z,100647.44
2022-09-30T11:52:32.094Z,100652.31
2022-09-30T11:53:44.078Z,100648.34
2022-09-30T11:55:11.771Z,100648.03
2022-09-30T11:56:32.705Z,100639.03
2022-09-30T11:57:41.751Z,100634.38
2022-09-30T11:58:50.426Z,100628.34
2022-09-30T11:59:58.030Z,100627.50
2022-09-30T12:01:12.300Z,100631.16
2022-09-30T12:02:30.269Z,100628.50
2022-09-30T12:03:38.213Z,100631.03
2022-09-30T12:04:43.803Z,100625.56
2022-09-30T12:05:48.481Z,100628.91
2022-09-30T12:06:57.461Z,100632.28
2022-09-30T12:08:05.648Z,100631.16
2022-09-30T12:09:17.548Z,100625.50
2022-09-30T12:10:25.690Z,100619.97
2022-09-30T12:11:33.858Z,100632.19
2022-09-30T12:12:37.236Z,100627.56
2022-09-30T12:13:43.363Z,100633.56
2022-09-30T12:14:49.393Z,100626.41
2022-09-30T12:15:55.128Z,100618.91
2022-09-30T12:17:00.756Z,100626.63
2022-09-30T12:18:06.364Z,100620.97
2022-09-30T12:19:15.684Z,100619.50
2022-09-30T12:20:26.062Z,100617.34
2022-09-30T12:21:33.008Z,100613.50
2022-09-30T12:22:40.928Z,100614.22
2022-09-30T12:23:46.331Z,100613.06
2022-09-30T12:24:48.898Z,100608.38
2022-09-30T12:25:55.820Z,100614.56
2022-09-30T12:26:59.470Z,100616.25
2022-09-30T12:28:28.113Z,100619.47
2022-09-30T12:29:54.085Z,100611.28
2022-09-30T12:31:04.828Z,100607.78
2022-09-30T12:32:25.094Z,100608.78
2022-09-30T12:33:40.992Z,100619.78
2022-09-30T12:35:03.306Z,100609.41
2022-09-30T12:36:23.344Z,100605.34
2022-09-30T12:37:40.279Z,100603.00
2022-09-30T12:39:18.451Z,100605.66
2022-09-30T12:40:52.713Z,100603.00
2022-09-30T12:42:13.454Z,100608.03
2022-09-30T12:43:46.305Z,100605.72
2022-09-30T12:45:19.771Z,100599.75
2022-09-30T12:46:31.168Z,100596.28
2022-09-30T12:47:45.619Z,100601.84